TTE weather

Sultan Babullah Airport
Sango-Ternate Island, Maluku Utara, Indonesia

Public forecast

Using degrees Celsius for public forecast. Weather courtesy of forecast.io.

Closest aviation weather report (METAR) to Sultan Babullah Airport

Closest report is Sam Ratulangi Airport, 153.5 nm (284.4 km) WNW. Retrieved 2020/02/24 00:30 UTC (56 seconds ago):

WAMM 240030Z 00000KT 9999 FEW022 29/25 Q1013 NOSIG

Closest aviation forecast (TAF) to Sultan Babullah Airport

Retrieved UTC (0 seconds ago):